Top Airports Right Now

Destinations with the worst weather right now

# Airport Conditions Runway Details
1
Flag of Croatia LDZA
Zagreb Airport
10669
3252
192330Z VRB03KT 4000 TSRA FEW015 SCT025CB BKN049 23/21 Q1013 TEMPO 30015G25KT 2000 +TSRA
2
Flag of United States KNQI
Kingsville Naval Air Station
8000
2438
192330Z 06016G27KT 10SM TS FEW049 BKN060 BKN075 32/24 A2993 RMK AO2 PK WND 04027/2325 WSHFT 2315 TSB30 T03170239 $
3
Flag of United States KIGM
Kingman Airport
6826
2081
192254Z AUTO 10020G35KT 9SM VCTS SCT110 34/13 A3004 RMK AO2 PK WND 10031/2253 WSHFT 2238 LTG DSNT NE-SE TSE54 T03390133
4
Flag of United States KIKG
Kleberg County Airport
5999
1828
192315Z AUTO 09015G21KT 2SM HZ SCT075 38/20 A2991 RMK AO2 VIS 1/2V5 T03750204
5
Flag of Costa Rica MROC
Juan Santamaría International Airport
9882
3012
192317Z 26009KT 3000 RA BKN001 OVC050 20/20 A3008 RETS NOSIG
6
Flag of United States KRTN
Raton Municipal Airport / Crews Field
6328
1929
192333Z AUTO 34020G28KT 10SM VCTS BKN110 25/08 A3028 RMK AO2 PK WND 34028/2333 WSHFT 2319 LTG DSNT ALQDS PRESRR T02500078
7
Flag of United States KGNB
Granby Grand County Airport
5095
1553
192315Z AUTO 02023G34KT 4SM +TSRA SCT030 OVC080 14/M09 A3047 RMK AO2 LTG DSNT ALQS T01431089
8
Flag of United States KFMM
Fort Morgan Municipal Airport
5219
1591
192315Z AUTO 28020G28KT 6SM -TSRA HZ SCT050 BKN075 BKN095 19/17 A3019 RMK AO2 LTG DSNT ALQDS
9
Flag of Australia YMAV
Avalon Airport
10000
3048
192303Z AUTO 29027G37KT 9999 // BKN037 BKN047 BKN059 10/04 Q0996
10
Flag of United States KEKY
Bessemer Airport
6007
1831
192316Z AUTO 14005G20KT 3SM -TSRA BR FEW014 BKN040 OVC070 22/21 A3004 RMK AO2 LTG DSNT NE-SE RAB07 P0008
11
Flag of United States KVQQ
Cecil Field
12504
3811
192250Z VRB06KT 1SM +TSRA OVC002 22/22 A3011 RMK TSB2150
12
Flag of Australia YGTH
Griffith Airport
4931
1503
192310Z AUTO 29019G29KT 9999 // NCD 10/05 Q1009
13
Flag of United States KHLC
Hill City Municipal Airport
5000
1524
192332Z AUTO 17013G27KT 1SM TSRA BKN031 BKN065 OVC095 22/ A3002 RMK AO2 PK WND 25032/2310 WSHFT 2312 LTG DSNT S AND SW RAB2257 P0050 T0217 $
14
Flag of Canada CYHA
Quaqtaq Airport
3520
1073
192300Z AUTO 09026G34KT 04/04 A2988
15
Flag of Australia YHOT
Mount Hotham Airport
4762
1451
192322Z AUTO 31017G27KT 2300 // BKN008 OVC012 OVC018 00/00 Q0996
16
Flag of Spain GCRR
César Manrique-Lanzarote Airport
7874
2400
192330Z 35021G31KT CAVOK 25/16 Q1016
17
Flag of Australia YBDG
Bendigo Airport
5249
1600
192300Z AUTO 30015G28KT 9999 // BKN022 BKN028 OVC032 07/03 Q1000
18
Flag of Canada CYRB
Resolute Bay Airport
6500
1981
192300Z 18014G22KT 1/4SM R35/2000V2200FT/N −DZ FG VV001 03/03 A2954 RMK FG8 SLP009
19
Flag of United States K74V
Roosevelt Municipal Airport
6500
1981
192315Z AUTO 01023KT 5SM HZ CLR 33/07 A3019 RMK AO2
20
Flag of United States KLAR
Laramie Regional Airport
8500
2591
192330Z AUTO 06018G29KT 7SM -TSRA BKN070 OVC090 18/12 A3035 RMK AO2 PK WND 05029/2325 LTG DSNT E RAB10 TSB26 P0002 T01830117
21
Flag of United States KCDR
Chadron Municipal Airport
6001
1829
192328Z AUTO 04017G23KT 10SM VCTS CLR 28/14 A3005 RMK AO2 LTG DSNT N AND E AND SW T02830139
22
Flag of Finland EFIV
Ivalo Airport
8199
2499
192320Z AUTO 24003KT 220V280 0250 R04/0450N FG VV001 14/14 Q1015
23
Flag of Australia YCOM
Cooma Snowy Mountains Airport
6955
2120
192303Z AUTO 28018G28KT 9999 // FEW016 05/01 Q0998
24
Flag of United States KSAF
Santa Fe Municipal Airport
8342
2543
192326Z 29015G22KT 10SM VCTS CLR 29/10 A3022 RMK AO2 LTG DSNT ALQDS T02940100
25
Flag of United States KLAM
Los Alamos Airport
5550
1692
192315Z AUTO 28023G30KT 10SM -TSRA FEW006 SCT085 BKN110 20/11 A3031 RMK AO2 PK WND 24031/2252 WSHFT 2303 P0051 T01980106 $
26
Flag of Morocco GMFB
Bouarfa Airport
10499
3200
192300Z AUTO 05022G34KT 5000 NSC 29/12 Q1024 NOSIG
27
Flag of United States KLLJ
Challis Airport
4600
1402
192255Z AUTO 25019G31KT 10SM -RA FEW075 SCT090 BKN110 31/05 A3019 RMK AO2 PK WND 27031/2252 RAB39 SLP148 P0000 T03060050
28
Flag of Australia YSHL
Shellharbour Airport
5967
1819
192300Z AUTO 31024G37KT 9999 // NCD 15/05 Q1000
29
Flag of Australia YBTH
Bathurst Airport
5594
1705
192318Z AUTO 31021G31KT 9999 -SHRA OVC018 OVC024 07/06 Q1007
30
Flag of United States PAPO
Point Hope Airport
4000
1219
192320Z AUTO 18024KT 1/2SM -RA FG OVC003 05/05 A2995 RMK AO2 PK WND 17027/2319 P0000
  • Windy  
  • Gusting Wind  
  • Crosswind  
  • Reduced Sight  
  • Runway Visual Range  
  • Low Ceiling  
  • Foggy  
  • Heavy Rain  
  • Heavy Snow  
  • Thunderstorm  
  • VATSIM ATC Online  
  • VATSIM Event Ongoing  
  • VATSIM Popular Airport